Time;durP1;ratioP1;P1;durP2;ratioP2;P2;SDS_P1;SDS_P2;PMS_P1;PMS_P2;Temp;Humidity;BMP_temperature;BMP_pressure;BME280_temperature;BME280_humidity;BME280_pressure;Samples;Min_cycle;Max_cycle;Signal;HPM_P1;HPM_P2
2022/05/21 00:00:45;;;;;;;10.50;5.15;;;;;;;14.21;80.48;101851.91;5034425;28;20392;-46
2022/05/21 00:03:13;;;;;;;8.10;5.00;;;;;;;14.23;80.65;101843.44;5034957;28;20057;-46
2022/05/21 00:05:41;;;;;;;11.95;5.85;;;;;;;14.23;80.74;101848.91;5036144;28;20077;-45
2022/05/21 00:08:10;;;;;;;8.20;5.43;;;;;;;14.24;80.55;101845.09;5033812;28;20415;-50
2022/05/21 00:10:41;;;;;;;8.82;5.22;;;;;;;14.21;80.66;101851.09;5017275;28;20041;-47
2022/05/21 00:13:11;;;;;;;10.68;5.90;;;;;;;14.20;81.01;101843.97;5044264;28;20124;-48
2022/05/21 00:15:40;;;;;;;11.43;5.53;;;;;;;14.21;80.92;101849.19;5051246;28;20040;-47
2022/05/21 00:18:08;;;;;;;9.27;5.10;;;;;;;14.21;80.91;101845.63;5048120;28;20041;-45
2022/05/21 00:20:47;;;;;;;7.65;4.93;;;;;;;14.18;81.20;101843.41;5039082;28;20052;-44
2022/05/21 00:23:18;;;;;;;9.40;5.53;;;;;;;14.20;81.18;101846.72;5053464;28;20041;-46
2022/05/21 00:25:48;;;;;;;9.13;5.30;;;;;;;14.19;81.65;101840.44;5052666;28;20041;-44
2022/05/21 00:28:16;;;;;;;8.23;5.43;;;;;;;14.20;81.39;101843.97;5052098;28;20048;-45
2022/05/21 00:30:44;;;;;;;9.52;5.28;;;;;;;14.21;81.39;101851.09;5048151;28;20076;-47
2022/05/21 00:33:13;;;;;;;9.30;5.22;;;;;;;14.21;81.33;101848.34;5053052;28;20072;-45
2022/05/21 00:35:41;;;;;;;10.38;5.63;;;;;;;14.23;81.27;101843.44;5047535;28;20041;-45
2022/05/21 00:38:09;;;;;;;9.60;4.93;;;;;;;14.23;81.18;101846.19;5034289;28;20454;-46
2022/05/21 00:40:39;;;;;;;8.27;4.72;;;;;;;14.25;81.32;101841.25;5032983;28;20488;-45
2022/05/21 00:43:13;;;;;;;9.30;4.82;;;;;;;14.23;81.18;101848.91;5034044;28;20040;-41
2022/05/21 00:45:41;;;;;;;9.23;4.88;;;;;;;14.23;80.85;101851.66;5033809;28;20467;-46
2022/05/21 00:48:09;;;;;;;9.02;4.70;;;;;;;14.19;81.33;101843.16;5033169;28;20041;-45
2022/05/21 00:50:37;;;;;;;7.70;4.30;;;;;;;14.17;81.05;101845.34;5036442;28;20053;-43
2022/05/21 00:53:04;;;;;;;8.88;4.40;;;;;;;14.14;81.02;101856.00;5033831;28;20412;-45
2022/05/21 00:55:32;;;;;;;7.82;4.40;;;;;;;14.11;81.54;101846.41;5034386;28;20041;-46
2022/05/21 01:00:56;;;;;;;7.32;3.83;;;;;;;14.12;81.02;101852.69;5034093;28;20041;-46
2022/05/21 01:03:29;;;;;;;10.30;4.90;;;;;;;14.09;81.35;101861.47;5032889;28;20053;-42
2022/05/21 01:06:17;;;;;;;9.38;4.47;;;;;;;14.09;81.29;101853.25;5017280;28;20053;-44
2022/05/21 01:09:05;;;;;;;8.25;4.03;;;;;;;14.08;81.53;101852.41;5036268;28;20059;-45
2022/05/21 01:11:54;;;;;;;10.65;4.35;;;;;;;14.09;81.41;101859.53;5037826;28;20090;-46
2022/05/21 01:14:42;;;;;;;11.00;5.28;;;;;;;14.05;81.56;101858.44;5053424;28;20496;-46
2022/05/21 01:17:29;;;;;;;10.82;4.50;;;;;;;14.07;81.69;101851.59;5035341;28;20058;-47
2022/05/21 01:20:00;;;;;;;9.05;4.60;;;;;;;14.07;81.97;101857.09;5034124;28;20103;-43
2022/05/21 01:22:30;;;;;;;10.02;4.47;;;;;;;14.06;81.72;101860.06;5049881;28;20049;-43
2022/05/21 01:24:58;;;;;;;7.97;4.40;;;;;;;14.07;81.79;101857.09;5049324;28;20490;-46
2022/05/21 01:27:27;;;;;;;7.10;3.95;;;;;;;14.05;82.11;101862.00;5031993;28;20567;-48
2022/05/21 01:29:55;;;;;;;9.50;4.38;;;;;;;14.05;82.12;101858.44;5033609;28;20048;-45
2022/05/21 01:32:23;;;;;;;6.95;3.72;;;;;;;14.06;81.98;101855.41;5033039;28;20500;-46
2022/05/21 01:34:52;;;;;;;5.85;3.53;;;;;;;14.07;81.83;101842.56;5032799;28;20045;-46
2022/05/21 01:37:19;;;;;;;8.02;3.78;;;;;;;14.07;82.17;101848.84;5032546;28;20072;-45
2022/05/21 01:39:47;;;;;;;7.85;4.03;;;;;;;14.09;82.09;101848.56;5033265;28;20037;-45
2022/05/21 01:42:15;;;;;;;8.93;3.90;;;;;;;14.10;82.19;101849.44;5032594;28;20053;-45
2022/05/21 01:44:42;;;;;;;8.95;4.15;;;;;;;14.06;82.15;101849.94;5036195;28;20041;-46
2022/05/21 01:47:13;;;;;;;10.13;4.10;;;;;;;14.07;81.91;101850.78;5033215;28;20050;-45
2022/05/21 01:49:42;;;;;;;9.07;3.90;;;;;;;14.04;82.05;101843.06;5029547;28;20080;-45
2022/05/21 01:52:11;;;;;;;9.32;3.85;;;;;;;14.00;82.46;101845.53;5035918;28;20068;-48
2022/05/21 01:54:39;;;;;;;6.25;3.63;;;;;;;14.02;82.59;101848.84;5031929;28;20504;-44
2022/05/21 01:57:09;;;;;;;8.43;4.03;;;;;;;14.03;82.40;101845.00;5045537;28;20068;-46
2022/05/21 01:59:37;;;;;;;8.93;3.85;;;;;;;14.01;82.71;101844.44;5049862;28;20060;-46
2022/05/21 02:02:05;;;;;;;9.32;3.88;;;;;;;14.02;82.85;101848.00;5052713;28;20049;-47
2022/05/21 02:04:34;;;;;;;11.60;4.20;;;;;;;14.02;82.68;101843.34;5048174;28;20045;-46
2022/05/21 02:07:02;;;;;;;8.02;3.55;;;;;;;13.97;82.77;101842.50;5032035;28;20046;-47
2022/05/21 02:09:29;;;;;;;10.40;4.00;;;;;;;13.96;83.27;101849.88;5032807;28;20076;-47
2022/05/21 02:11:57;;;;;;;9.45;4.05;;;;;;;13.97;83.08;101843.31;5033815;28;20029;-47
2022/05/21 02:14:25;;;;;;;7.28;3.67;;;;;;;14.00;83.24;101856.50;5052206;28;20037;-41
2022/05/21 02:16:53;;;;;;;10.82;3.95;;;;;;;14.04;83.06;101848.56;5036211;28;20046;-47
2022/05/21 02:19:20;;;;;;;8.52;3.50;;;;;;;14.01;83.12;101851.84;5031508;28;20050;-45
2022/05/21 02:21:48;;;;;;;8.23;3.70;;;;;;;13.98;83.14;101853.19;5036979;28;20395;-46
2022/05/21 02:24:16;;;;;;;7.70;3.58;;;;;;;14.00;83.45;101845.53;5036242;28;20488;-45
2022/05/21 02:26:43;;;;;;;9.50;4.30;;;;;;;13.98;83.51;101852.38;5035738;28;20034;-46
2022/05/21 02:29:11;;;;;;;10.40;4.30;;;;;;;13.97;83.94;101846.03;5036913;28;20055;-48
2022/05/21 02:31:40;;;;;;;9.55;4.50;;;;;;;13.97;83.79;101851.53;5036347;28;20042;-48
2022/05/21 02:34:07;;;;;;;10.95;4.10;;;;;;;14.00;83.51;101845.53;5036669;28;20396;-43
2022/05/21 02:39:30;;;;;;;7.18;3.90;;;;;;;14.01;83.53;101846.34;5036711;28;20045;-44
2022/05/21 02:41:59;;;;;;;11.75;4.07;;;;;;;13.97;84.12;101843.31;5036514;28;20041;-45
2022/05/21 02:44:29;;;;;;;11.38;4.15;;;;;;;13.97;84.51;101851.53;5041222;28;20051;-44
2022/05/21 02:46:56;;;;;;;11.13;4.30;;;;;;;13.98;84.10;101852.38;5056287;28;20044;-44
2022/05/21 02:49:24;;;;;;;10.52;4.00;;;;;;;13.97;84.54;101845.22;5055144;28;20373;-46
2022/05/21 02:51:52;;;;;;;10.93;4.20;;;;;;;13.98;84.54;101844.16;5055765;28;20052;-45
2022/05/21 02:54:20;;;;;;;11.90;4.40;;;;;;;13.99;84.58;101849.34;5046878;28;20045;-45
2022/05/21 02:56:49;;;;;;;10.88;4.03;;;;;;;13.97;84.75;101848.78;5037455;28;20550;-45
2022/05/21 02:59:18;;;;;;;12.00;4.82;;;;;;;13.98;84.92;101852.38;5049819;28;20140;-46
2022/05/21 03:01:45;;;;;;;13.95;4.40;;;;;;;14.00;84.87;101851.00;5036428;28;20038;-44
2022/05/21 03:04:14;;;;;;;10.63;4.55;;;;;;;14.02;84.46;101848.00;5037170;28;20065;-47
2022/05/21 03:06:42;;;;;;;10.43;4.28;;;;;;;14.02;84.74;101848.84;5035955;28;20403;-45
2022/05/21 03:11:55;;;;;;;;;;;;;;;13.97;84.67;101850.72;5036625;28;20147;-44
2022/05/21 03:14:23;;;;;;;12.75;4.35;;;;;;;13.96;85.07;101858.09;5043131;28;19921;-45
2022/05/21 03:16:56;;;;;;;9.98;4.47;;;;;;;13.96;84.85;101855.38;5038249;28;20493;-45
2022/05/21 03:19:24;;;;;;;10.85;4.28;;;;;;;13.93;85.51;101850.44;5035332;28;20037;-44
2022/05/21 03:21:51;;;;;;;12.88;4.45;;;;;;;13.94;85.33;101845.75;5036298;28;20491;-46
2022/05/21 03:24:19;;;;;;;11.10;4.25;;;;;;;13.95;85.35;101847.41;5037570;28;20421;-46
2022/05/21 03:26:47;;;;;;;11.57;4.40;;;;;;;13.94;85.49;101848.50;5036597;28;20056;-43
2022/05/21 03:29:14;;;;;;;12.55;4.80;;;;;;;13.94;85.40;101843.03;5044558;28;20048;-44
2022/05/21 03:31:42;;;;;;;10.70;4.10;;;;;;;13.96;85.80;101849.06;5044118;28;20049;-44
2022/05/21 03:34:10;;;;;;;11.88;4.05;;;;;;;13.96;85.80;101849.06;5036197;28;20714;-43
2022/05/21 03:36:38;;;;;;;11.77;4.88;;;;;;;13.95;85.69;101851.00;5035290;28;20583;-46
2022/05/21 03:39:06;;;;;;;10.30;4.05;;;;;;;13.94;85.82;101851.25;5038224;28;20037;-43
2022/05/21 03:41:36;;;;;;;10.73;4.55;;;;;;;13.90;86.06;101850.94;5037796;28;20128;-44
2022/05/21 03:44:04;;;;;;;11.30;4.43;;;;;;;13.90;86.13;101853.69;5035356;28;20076;-45
2022/05/21 03:46:32;;;;;;;10.95;4.70;;;;;;;13.91;86.16;101852.59;5035046;28;20045;-43
2022/05/21 03:49:00;;;;;;;9.25;4.07;;;;;;;13.92;86.32;101851.50;5035152;28;20041;-46
2022/05/21 03:51:28;;;;;;;12.40;5.00;;;;;;;13.93;86.25;101847.69;5052534;28;20041;-44
2022/05/21 03:53:55;;;;;;;11.02;4.50;;;;;;;13.94;86.04;101852.06;5053746;28;20041;-41
2022/05/21 03:56:23;;;;;;;11.43;4.88;;;;;;;13.92;86.36;101854.25;5041941;28;20041;-47
2022/05/21 03:58:51;;;;;;;10.48;4.78;;;;;;;13.94;86.50;101853.97;5035056;28;20053;-43
2022/05/21 04:01:19;;;;;;;13.43;4.63;;;;;;;13.94;86.51;101854.81;5034038;28;20706;-45
2022/05/21 04:03:48;;;;;;;11.57;4.75;;;;;;;13.96;86.25;101860.03;5036013;28;20053;-47
2022/05/21 04:06:16;;;;;;;12.10;4.90;;;;;;;13.95;86.50;101852.88;5032877;28;20041;-50
2022/05/21 04:08:44;;;;;;;12.32;5.03;;;;;;;13.94;86.73;101860.28;5034952;28;20045;-45
2022/05/21 04:11:11;;;;;;;14.88;5.35;;;;;;;13.95;86.68;101866.59;5036834;28;20060;-45
2022/05/21 04:13:39;;;;;;;15.75;5.35;;;;;;;13.94;86.58;101863.03;5039652;28;20038;-47
2022/05/21 04:16:07;;;;;;;10.55;4.53;;;;;;;13.91;86.89;101868.22;5035807;28;20500;-44
2022/05/21 04:18:35;;;;;;;12.70;4.85;;;;;;;13.90;86.89;101864.63;5034588;28;20429;-46
2022/05/21 04:21:02;;;;;;;13.68;4.97;;;;;;;13.91;87.15;101869.03;5033369;28;20049;-49
2022/05/21 04:23:30;;;;;;;12.90;4.63;;;;;;;13.90;87.02;101867.38;5044766;28;20526;-47
2022/05/21 04:25:59;;;;;;;10.48;5.32;;;;;;;13.90;87.24;101872.84;5040576;28;20057;-46
2022/05/21 04:28:31;;;;;;;15.50;5.38;;;;;;;13.91;87.07;101871.78;5034452;28;20050;-44
2022/05/21 04:30:59;;;;;;;14.25;5.13;;;;;;;13.91;87.44;101874.53;5034188;28;20037;-47
2022/05/21 04:33:26;;;;;;;14.05;5.30;;;;;;;13.91;87.62;101881.91;5039593;28;20565;-46
2022/05/21 04:38:41;;;;;;;15.50;5.32;;;;;;;13.91;87.68;101890.97;5054281;28;20040;-45
2022/05/21 04:41:10;;;;;;;13.50;5.03;;;;;;;13.94;87.43;101878.66;5053770;28;20045;-45
2022/05/21 04:43:37;;;;;;;16.42;6.03;;;;;;;13.98;87.36;101888.81;5036711;28;20053;-46
2022/05/21 04:46:06;;;;;;;15.15;5.63;;;;;;;13.96;87.53;101885.50;5036888;28;20558;-48
2022/05/21 04:48:34;;;;;;;14.07;5.57;;;;;;;13.96;87.38;101882.78;5036657;28;20140;-47
2022/05/21 04:51:10;;;;;;;16.10;5.78;;;;;;;14.00;87.62;101889.38;5039663;28;20045;-50
2022/05/21 04:53:38;;;;;;;13.82;5.60;;;;;;;14.00;87.66;101892.13;5036137;28;20445;-46
2022/05/21 04:56:06;;;;;;;17.77;6.00;;;;;;;13.97;87.77;101898.09;5034414;28;20056;-47
2022/05/21 04:58:55;;;;;;;10.88;4.55;;;;;;;13.98;87.95;101890.72;5035579;28;20443;-47
2022/05/21 05:01:23;;;;;;;10.35;4.43;;;;;;;14.04;87.99;101893.22;5037358;28;20496;-46
2022/05/21 05:03:51;;;;;;;18.85;6.05;;;;;;;14.02;87.78;101897.31;5045460;28;20037;-44
2022/05/21 05:06:19;;;;;;;15.43;5.75;;;;;;;14.00;88.15;101900.34;5033750;28;20045;-48
2022/05/21 05:08:46;;;;;;;15.93;5.47;;;;;;;14.04;87.61;101898.69;5033604;28;20409;-42
2022/05/21 05:11:14;;;;;;;16.77;6.20;;;;;;;14.03;87.95;101902.53;5043487;28;20045;-46
2022/05/21 05:13:42;;;;;;;16.10;5.68;;;;;;;14.05;88.11;101907.78;5051209;28;20116;-45
2022/05/21 05:16:09;;;;;;;15.85;5.35;;;;;;;14.09;87.98;101908.06;5052706;28;20037;-47
2022/05/21 05:18:37;;;;;;;18.92;6.28;;;;;;;14.11;88.11;101911.34;5035556;28;20046;-46
2022/05/21 05:21:05;;;;;;;16.40;5.97;;;;;;;14.10;88.13;101915.19;5034340;28;20052;-47
2022/05/21 05:23:33;;;;;;;18.73;5.97;;;;;;;14.11;87.90;101914.91;5033093;28;20107;-46
2022/05/21 05:26:01;;;;;;;15.98;5.78;;;;;;;14.14;88.14;101921.78;5033728;28;20500;-48
2022/05/21 05:28:29;;;;;;;16.30;5.38;;;;;;;14.13;88.00;101925.63;5044440;28;20094;-47
2022/05/21 05:30:57;;;;;;;18.95;6.40;;;;;;;14.07;88.12;101931.06;5043645;28;20045;-47
2022/05/21 05:33:26;;;;;;;19.17;6.30;;;;;;;14.09;88.26;101935.47;5032522;28;20045;-45
2022/05/21 05:35:54;;;;;;;15.00;5.28;;;;;;;14.07;88.41;101927.53;5050807;28;20052;-46
2022/05/21 05:38:23;;;;;;;18.38;5.35;;;;;;;14.11;87.97;101923.13;5052815;28;20120;-46
2022/05/21 05:40:52;;;;;;;16.20;5.75;;;;;;;14.06;88.28;101923.09;5049793;28;20041;-45
2022/05/21 05:43:21;;;;;;;20.85;6.45;;;;;;;14.06;88.98;101934.88;5052893;28;20048;-45
2022/05/21 05:45:50;;;;;;;19.98;5.63;;;;;;;14.12;88.89;101929.44;5034169;28;20045;-49
2022/05/21 05:48:19;;;;;;;7.30;2.60;;;;;;;14.24;90.66;101932.81;5049597;28;20045;-44
2022/05/21 05:50:54;;;;;;;;;;;;;;;14.45;91.34;101937.31;5046214;28;20084;-44
2022/05/21 05:53:22;;;;;;;24.25;6.75;;;;;;;14.38;88.46;101938.63;5048251;28;20003;-47
2022/05/21 05:55:50;;;;;;;14.57;5.18;;;;;;;14.46;88.94;101936.22;5052600;28;20550;-46
2022/05/21 06:01:14;;;;;;;17.48;5.53;;;;;;;14.31;88.16;101929.81;5046036;28;20068;-47
2022/05/21 06:03:42;;;;;;;14.90;5.43;;;;;;;14.27;88.10;101924.06;5034565;28;20037;-46
2022/05/21 06:06:10;;;;;;;21.15;6.18;;;;;;;14.26;88.19;101938.84;5031718;28;20052;-45
2022/05/21 06:08:38;;;;;;;19.60;5.57;;;;;;;14.26;88.54;101933.34;5031994;28;20045;-47
2022/05/21 06:11:06;;;;;;;20.52;6.38;;;;;;;14.29;88.28;101932.84;5032208;28;20038;-44
2022/05/21 06:13:34;;;;;;;20.63;6.05;;;;;;;14.23;88.22;101944.88;5032143;28;20111;-46
2022/05/21 06:16:02;;;;;;;23.55;7.35;;;;;;;14.23;88.29;101953.09;5031302;28;20057;-48
2022/05/21 06:18:29;;;;;;;20.20;6.80;;;;;;;14.23;88.06;101948.44;5031793;28;20045;-49
2022/05/21 06:20:59;;;;;;;21.02;7.82;;;;;;;14.23;88.14;101947.59;5030709;28;20143;-48
2022/05/21 06:23:27;;;;;;;19.73;6.82;;;;;;;14.23;88.32;101944.88;5030922;28;20061;-45
2022/05/21 06:25:57;;;;;;;17.15;5.13;;;;;;;14.31;88.38;101944.38;5041858;28;20049;-45
2022/05/21 06:28:24;;;;;;;24.65;7.18;;;;;;;14.22;88.64;101946.78;5052507;28;20049;-45
2022/05/21 06:30:52;;;;;;;21.00;6.68;;;;;;;14.26;88.73;101960.78;5051463;28;20051;-46
2022/05/21 06:33:30;;;;;;;18.90;6.30;;;;;;;14.18;88.97;101953.88;5052250;28;20052;-47
2022/05/21 06:36:11;;;;;;;15.45;4.90;;;;;;;14.56;88.17;101954.69;5040862;28;20350;-46
2022/05/21 06:38:39;;;;;;;19.23;6.00;;;;;;;14.66;87.22;101959.38;5047479;28;20063;-45
2022/05/21 06:41:07;;;;;;;21.45;6.45;;;;;;;14.58;86.70;101957.97;5047574;28;20034;-45
2022/05/21 06:43:35;;;;;;;19.48;6.20;;;;;;;14.54;86.80;101953.28;5031531;28;20045;-45
2022/05/21 06:46:04;;;;;;;16.35;5.32;;;;;;;14.57;86.46;101963.72;5032365;28;20063;-45
2022/05/21 06:48:32;;;;;;;20.40;5.63;;;;;;;14.67;85.68;101974.72;5032372;28;20042;-41
2022/05/21 06:51:05;;;;;;;18.30;5.47;;;;;;;14.55;85.67;101977.72;5046923;28;20407;-43
2022/05/21 06:53:35;;;;;;;19.48;6.63;;;;;;;14.56;84.93;101973.88;5051093;28;20499;-44
2022/05/21 06:56:07;;;;;;;19.35;7.00;;;;;;;14.39;86.44;101989.66;5051953;28;20147;-47
2022/05/21 06:58:35;;;;;;;18.30;5.70;;;;;;;14.40;86.27;101978.41;5050878;28;20081;-45
2022/05/21 07:01:05;;;;;;;23.02;6.65;;;;;;;14.38;85.11;101983.34;5049794;28;20037;-44
2022/05/21 07:03:34;;;;;;;21.75;6.78;;;;;;;14.27;85.67;101982.44;5029528;28;20068;-45
2022/05/21 07:08:49;;;;;;;17.95;5.38;;;;;;;14.38;84.85;101969.66;5037175;28;20042;-48
2022/05/21 07:11:16;;;;;;;23.05;5.90;;;;;;;14.32;85.07;101973.44;5048404;28;20041;-47
2022/05/21 07:13:44;;;;;;;21.02;6.07;;;;;;;14.31;84.81;101981.91;5054381;28;20083;-47
2022/05/21 07:16:12;;;;;;;19.27;5.07;;;;;;;14.40;85.58;101981.16;5055791;28;20045;-48
2022/05/21 07:18:41;;;;;;;20.55;6.03;;;;;;;14.41;84.66;101987.47;5055273;28;20132;-48
2022/05/21 07:21:15;;;;;;;20.30;5.85;;;;;;;14.39;84.72;101993.22;5051542;28;20124;-42
2022/05/21 07:23:43;;;;;;;20.85;6.45;;;;;;;14.54;84.77;102002.66;5055152;28;20053;-47
2022/05/21 07:26:18;;;;;;;19.02;5.80;;;;;;;14.68;84.55;102006.59;5038231;28;20476;-47
2022/05/21 07:28:46;;;;;;;21.67;6.40;;;;;;;14.58;82.93;102003.78;5018838;28;20420;-47
2022/05/21 07:31:15;;;;;;;21.88;5.43;;;;;;;14.40;81.77;102013.22;5017909;28;20457;-43
2022/05/21 07:33:44;;;;;;;13.95;4.30;;;;;;;14.59;84.35;102000.75;5048046;28;20411;-49
2022/05/21 07:36:12;;;;;;;18.67;5.53;;;;;;;14.75;82.67;101995.38;5034112;28;20507;-50
2022/05/21 07:38:39;;;;;;;19.92;5.53;;;;;;;14.77;82.62;102010.47;5049822;28;20041;-46
2022/05/21 07:41:08;;;;;;;18.20;5.72;;;;;;;14.77;83.17;102004.13;5035073;28;20052;-47
2022/05/21 07:43:35;;;;;;;25.00;6.95;;;;;;;14.78;83.94;102009.38;5036025;28;20485;-45
2022/05/21 07:46:04;;;;;;;16.23;5.25;;;;;;;14.86;83.44;102006.13;5034798;28;20041;-48
2022/05/21 07:48:31;;;;;;;16.27;4.88;;;;;;;15.02;83.25;102014.41;5035156;28;20034;-47
2022/05/21 07:51:06;;;;;;;21.63;6.15;;;;;;;14.91;82.76;102019.88;5034863;28;20053;-46
2022/05/21 07:53:38;;;;;;;17.48;5.68;;;;;;;14.84;82.94;102019.28;5036105;28;20113;-47
2022/05/21 07:56:10;;;;;;;20.15;6.38;;;;;;;14.83;82.96;102023.09;5045568;28;20068;-46
2022/05/21 07:58:39;;;;;;;18.50;5.28;;;;;;;14.75;82.62;102026.38;5052757;28;20560;-47
2022/05/21 08:01:08;;;;;;;17.00;5.63;;;;;;;14.69;82.18;102028.25;5054905;28;20120;-48
2022/05/21 08:03:42;;;;;;;16.27;5.25;;;;;;;14.77;80.82;102024.19;5035880;28;20043;-46
2022/05/21 08:06:10;;;;;;;16.25;4.78;;;;;;;14.83;81.31;102028.59;5043625;28;20044;-47
2022/05/21 08:08:37;;;;;;;18.75;5.55;;;;;;;14.88;79.88;102025.03;5052656;28;20566;-47
2022/05/21 08:11:05;;;;;;;14.55;4.22;;;;;;;14.96;80.25;102015.47;5054698;28;20051;-46
2022/05/21 08:13:34;;;;;;;23.88;5.72;;;;;;;15.11;80.07;102032.03;5032896;28;20116;-47
2022/05/21 08:16:02;;;;;;;19.65;5.78;;;;;;;15.16;79.01;102031.22;5028169;28;20029;-47
2022/05/21 08:18:31;;;;;;;14.13;4.60;;;;;;;15.13;78.92;102027.91;5032819;28;20045;-50
2022/05/21 08:20:59;;;;;;;22.20;5.50;;;;;;;15.23;79.78;102027.13;5038121;28;20055;-49
2022/05/21 08:29:00;;;;;;;;;;;;;;;15.12;79.61;102041.88;5037088;28;20071;-48
2022/05/21 08:31:28;;;;;;;20.50;5.57;;;;;;;15.10;79.44;102039.44;5037972;28;19920;-48
2022/05/21 08:33:56;;;;;;;18.35;5.57;;;;;;;15.13;79.69;102035.31;5051174;28;20051;-46
2022/05/21 08:36:24;;;;;;;14.77;5.13;;;;;;;15.16;80.38;102025.72;5036482;28;20033;-49
2022/05/21 08:38:51;;;;;;;20.05;5.70;;;;;;;15.22;78.74;102030.94;5034278;28;20047;-51
2022/05/21 08:41:31;;;;;;;14.63;5.78;;;;;;;15.28;78.85;102026.31;5050886;28;20100;-44
2022/05/21 08:44:06;;;;;;;18.35;4.80;;;;;;;15.45;80.11;102026.91;5037858;28;20043;-44
2022/05/21 08:46:52;;;;;;;16.60;5.63;;;;;;;15.45;79.32;102029.63;5038444;28;20041;-46
2022/05/21 08:49:33;;;;;;;14.50;4.53;;;;;;;15.45;78.63;102037.88;5036753;28;20044;-46
2022/05/21 08:52:19;;;;;;;18.70;5.68;;;;;;;15.37;77.32;102034.81;5033920;28;20045;-47
2022/05/21 08:54:48;;;;;;;15.10;4.43;;;;;;;15.39;77.12;102040.88;5032441;28;20041;-43
2022/05/21 08:57:28;;;;;;;15.85;5.07;;;;;;;15.45;77.28;102034.31;5038048;28;20047;-49
2022/05/21 09:00:11;;;;;;;12.00;3.78;;;;;;;15.51;78.41;102027.72;5032048;28;20080;-47
2022/05/21 09:02:39;;;;;;;18.00;4.80;;;;;;;15.49;77.97;102030.75;5033554;28;20387;-47
2022/05/21 09:05:12;;;;;;;16.85;5.40;;;;;;;15.45;77.45;102029.63;5045940;28;20102;-46
2022/05/21 09:08:08;;;;;;;13.20;4.25;;;;;;;15.38;77.40;102039.25;4336641;28;10001234;-48
2022/05/21 09:10:43;;;;;;;17.00;4.07;;;;;;;15.38;75.59;102025.50;5044758;28;20475;-47
2022/05/21 09:13:15;;;;;;;18.58;5.00;;;;;;;15.44;76.67;102022.50;5038541;28;20046;-49
2022/05/21 09:18:33;;;;;;;17.52;4.68;;;;;;;15.49;76.76;102018.91;5045918;28;20052;-47
2022/05/21 09:21:18;;;;;;;11.93;4.15;;;;;;;15.49;76.99;102019.78;5040790;28;20515;-51
2022/05/21 09:23:49;;;;;;;15.68;4.97;;;;;;;15.48;76.61;102018.09;5046821;28;20407;-47
2022/05/21 09:26:19;;;;;;;18.63;4.97;;;;;;;15.44;76.87;102025.25;5047132;28;20039;-48
2022/05/21 09:28:48;;;;;;;20.98;5.85;;;;;;;15.42;76.70;102024.69;5042488;28;20044;-48
2022/05/21 09:31:31;;;;;;;16.05;5.35;;;;;;;15.54;77.75;102027.19;5052794;28;20125;-45
2022/05/21 09:34:24;;;;;;;15.57;5.78;;;;;;;15.61;77.81;102027.75;5038150;28;20070;-47
2022/05/21 09:36:52;;;;;;;16.40;5.18;;;;;;;15.59;75.89;102029.94;5032653;28;20034;-48
2022/05/21 09:39:41;;;;;;;17.00;4.65;;;;;;;15.53;75.49;102031.84;5032032;28;20045;-47
2022/05/21 09:45:32;;;;;;;12.85;4.00;;;;;;;15.57;75.17;102043.13;5051307;28;20057;-49
2022/05/21 09:48:20;;;;;;;15.88;4.72;;;;;;;15.57;75.35;102040.38;5051774;28;20049;-44
2022/05/21 09:50:52;;;;;;;14.35;4.32;;;;;;;15.56;75.04;102041.47;5031611;28;20033;-46
2022/05/21 09:53:21;;;;;;;19.77;6.07;;;;;;;15.61;76.24;102044.25;5041543;28;20048;-45
2022/05/21 09:56:02;;;;;;;19.50;6.18;;;;;;;15.70;76.83;102045.38;5050824;28;20043;-45
2022/05/21 09:58:34;;;;;;;22.70;5.53;;;;;;;15.79;75.28;102042.09;5049827;28;20414;-46
2022/05/21 10:01:01;;;;;;;19.20;5.10;;;;;;;15.86;74.94;102050.91;5037057;28;20065;-45
2022/05/21 10:03:55;;;;;;;16.38;5.07;;;;;;;15.89;74.01;102044.84;5034570;28;20402;-46
2022/05/21 10:06:34;;;;;;;19.90;4.97;;;;;;;15.93;73.06;102045.97;5049913;28;20049;-47
2022/05/21 10:12:32;;;;;;;14.75;3.97;;;;;;;16.04;72.49;102041.28;5033121;28;20128;-47
2022/05/21 10:15:10;;;;;;;17.85;4.28;;;;;;;16.08;72.57;102053.38;5033656;28;20042;-47
2022/05/21 10:17:59;;;;;;;15.80;3.67;;;;;;;16.13;71.57;102045.13;5032832;28;20080;-46
2022/05/21 10:20:34;;;;;;;16.25;4.03;;;;;;;16.23;71.41;102041.53;5038846;28;20053;-46
2022/05/21 10:23:11;;;;;;;15.25;3.85;;;;;;;16.33;69.35;102047.88;5032463;28;20500;-47
2022/05/21 10:26:07;;;;;;;15.35;3.95;;;;;;;16.42;68.39;102042.63;5032268;28;20079;-46
2022/05/21 10:28:47;;;;;;;12.40;3.47;;;;;;;16.47;67.10;102047.28;5033004;28;20393;-47
2022/05/21 10:31:22;;;;;;;15.02;3.88;;;;;;;16.47;67.60;102039.03;5041624;28;20504;-49
2022/05/21 10:34:13;;;;;;;19.30;5.70;;;;;;;16.60;69.33;102039.28;5049382;28;20601;-48
2022/05/21 10:37:04;;;;;;;16.63;3.95;;;;;;;16.62;67.76;102039.03;5031434;28;20048;-47
2022/05/21 10:40:09;;;;;;;15.32;4.35;;;;;;;16.60;68.92;102035.72;5031291;28;20048;-48
2022/05/21 10:42:58;;;;;;;14.23;3.53;;;;;;;16.62;66.87;102036.28;5036298;28;20072;-48
2022/05/21 10:45:33;;;;;;;15.45;3.80;;;;;;;16.62;66.77;102044.53;5036493;28;20287;-48
2022/05/21 10:48:25;;;;;;;14.00;3.78;;;;;;;16.65;67.39;102040.38;5035706;28;20132;-44
2022/05/21 10:50:54;;;;;;;13.55;3.65;;;;;;;16.66;67.29;102042.03;5034548;28;20103;-50
2022/05/21 10:53:53;;;;;;;15.63;4.00;;;;;;;16.68;68.83;102056.34;5036217;28;20041;-49
2022/05/21 10:56:45;;;;;;;12.80;4.22;;;;;;;16.70;69.38;102054.13;5034770;28;20037;-48
2022/05/21 10:59:54;;;;;;;14.85;4.70;;;;;;;16.63;67.53;102057.16;5050275;28;20052;-49
2022/05/21 11:02:57;;;;;;;14.65;4.30;;;;;;;16.48;67.56;102058.03;5034519;28;20041;-47
2022/05/21 11:05:56;;;;;;;15.13;4.35;;;;;;;16.42;69.12;102059.13;5035002;28;20049;-48
2022/05/21 11:09:02;;;;;;;15.82;4.88;;;;;;;16.38;70.11;102060.81;5043468;28;20112;-47
2022/05/21 11:11:48;;;;;;;13.85;5.05;;;;;;;16.37;69.95;102059.13;5034069;28;20067;-44
2022/05/21 11:14:22;;;;;;;;;;;;;;;16.42;70.52;102064.63;5036123;28;20063;-43
2022/05/21 11:16:56;;;;;;;18.05;4.70;;;;;;;16.46;70.05;102064.91;5018059;28;20392;-47
2022/05/21 11:19:39;;;;;;;17.40;4.28;;;;;;;16.46;68.54;102059.41;5053626;28;20045;-48
2022/05/21 11:22:09;;;;;;;16.20;4.40;;;;;;;16.46;68.97;102065.72;5043037;28;20052;-47
2022/05/21 11:24:56;;;;;;;14.65;4.97;;;;;;;16.36;67.89;102071.25;5034426;28;20128;-48
2022/05/21 11:27:34;;;;;;;14.95;4.38;;;;;;;16.36;68.93;102069.31;5041477;28;20112;-46
2022/05/21 11:30:10;;;;;;;15.95;4.35;;;;;;;16.48;69.69;102063.53;5050511;28;20049;-48
2022/05/21 11:38:40;;;;;;;14.05;4.22;;;;;;;16.79;66.72;102067.06;5034393;28;20072;-48
2022/05/21 11:41:27;;;;;;;16.52;4.43;;;;;;;16.91;67.26;102061.25;5045957;28;20067;-47
2022/05/21 11:47:20;;;;;;;14.85;4.32;;;;;;;16.97;67.87;102060.13;5034792;28;20520;-43
2022/05/21 11:50:07;;;;;;;14.10;4.43;;;;;;;17.00;66.32;102054.06;5050786;28;20518;-48
2022/05/21 11:52:35;;;;;;;12.40;3.55;;;;;;;17.07;63.88;102058.44;5052418;28;20045;-46
2022/05/21 11:55:11;;;;;;;14.02;4.00;;;;;;;17.07;63.89;102053.75;5040257;28;20041;-46
2022/05/21 11:57:58;;;;;;;9.93;3.50;;;;;;;17.02;63.85;102057.34;5042674;28;20082;-44
2022/05/21 12:00:25;;;;;;;14.93;3.42;;;;;;;16.98;62.56;102060.94;5052896;28;20053;-46
2022/05/21 12:02:53;;;;;;;14.50;3.90;;;;;;;16.94;63.25;102070.88;5054509;28;20056;-46
2022/05/21 12:05:33;;;;;;;14.07;3.90;;;;;;;16.79;61.47;102058.81;5052459;28;20052;-45
2022/05/21 12:08:18;;;;;;;12.48;3.30;;;;;;;16.79;62.20;102058.00;5053513;28;20095;-43
2022/05/21 12:11:02;;;;;;;14.15;3.47;;;;;;;16.86;63.65;102041.16;4703538;28;10000207;-46
2022/05/21 12:13:38;;;;;;;9.77;3.33;;;;;;;16.98;63.30;102050.78;5043888;28;20053;-47
2022/05/21 12:16:19;;;;;;;13.15;3.63;;;;;;;17.07;63.66;102044.66;5048826;28;20056;-48
2022/05/21 12:18:51;;;;;;;13.15;3.30;;;;;;;17.12;63.25;102047.41;5047274;28;20124;-45
2022/05/21 12:21:35;;;;;;;12.65;3.38;;;;;;;17.17;59.71;102053.72;5014769;28;20042;-49
2022/05/21 12:24:40;;;;;;;13.20;3.13;;;;;;;17.22;58.43;102039.06;5031628;28;20045;-50